Time;durP1;ratioP1;P1;durP2;ratioP2;P2;SDS_P1;SDS_P2;PMS_P1;PMS_P2;Temp;Humidity;BMP_temperature;BMP_pressure;BME280_temperature;BME280_humidity;BME280_pressure;Samples;Min_cycle;Max_cycle;Signal;HPM_P1;HPM_P2
2022/04/03 00:01:36;;;;;;;10.65;5.22;;;;;;;0.20;100.00;97686.81;4379021;32;20153;-69
2022/04/03 00:04:04;;;;;;;10.23;4.97;;;;;;;0.92;100.00;97689.78;4379046;32;20086;-68
2022/04/03 00:06:32;;;;;;;5.47;3.92;;;;;;;0.56;100.00;97688.75;4378991;32;20392;-68
2022/04/03 00:08:59;;;;;;;10.38;5.72;;;;;;;0.44;100.00;97692.97;4378964;32;20161;-68
2022/04/03 00:11:28;;;;;;;6.28;3.65;;;;;;;0.51;100.00;97688.22;4378765;32;20102;-68
2022/04/03 00:13:57;;;;;;;8.07;4.28;;;;;;;1.04;100.00;97696.69;4378919;32;20087;-68
2022/04/03 00:16:25;;;;;;;6.18;4.60;;;;;;;0.95;100.00;97691.34;4378846;32;20393;-68
2022/04/03 00:18:52;;;;;;;7.70;4.47;;;;;;;0.76;100.00;97692.59;4378794;32;20091;-69
2022/04/03 00:21:19;;;;;;;6.18;3.35;;;;;;;0.75;100.00;97693.50;4378811;32;20095;-68
2022/04/03 00:23:48;;;;;;;6.80;3.78;;;;;;;1.17;100.00;97693.31;4378837;32;20109;-69
2022/04/03 00:26:16;;;;;;;6.15;3.05;;;;;;;0.78;100.00;97693.28;4378664;32;20109;-69
2022/04/03 00:28:43;;;;;;;8.25;4.07;;;;;;;0.86;100.00;97698.78;4378781;32;20126;-69
2022/04/03 00:31:12;;;;;;;10.05;5.45;;;;;;;0.82;100.00;97699.09;4378613;32;20095;-68
2022/04/03 00:33:40;;;;;;;8.02;4.22;;;;;;;0.86;100.00;97709.09;4378730;32;20151;-68
2022/04/03 00:36:07;;;;;;;6.80;4.22;;;;;;;1.04;100.00;97708.78;4378560;32;20087;-68
2022/04/03 00:38:34;;;;;;;9.32;4.90;;;;;;;0.78;100.00;97708.75;4378631;32;20102;-68
2022/04/03 00:41:02;;;;;;;10.30;4.28;;;;;;;0.51;100.00;97706.25;4379458;32;20602;-69
2022/04/03 00:43:30;;;;;;;7.95;3.62;;;;;;;0.95;100.00;97709.41;4380559;32;20086;-68
2022/04/03 00:45:59;;;;;;;8.18;4.20;;;;;;;0.69;100.00;97706.81;4380373;32;20117;-69
2022/04/03 00:48:27;;;;;;;9.13;5.30;;;;;;;0.62;100.00;97713.28;4380417;32;20164;-68
2022/04/03 00:50:54;;;;;;;7.93;4.32;;;;;;;0.19;100.00;97722.03;4380433;32;20182;-68
2022/04/03 00:53:21;;;;;;;10.07;4.78;;;;;;;0.41;100.00;97721.50;4380414;32;20125;-69
2022/04/03 00:55:50;;;;;;;6.93;4.03;;;;;;;0.05;100.00;97725.50;4380311;32;20090;-69
2022/04/03 00:58:17;;;;;;;8.75;4.87;;;;;;;0.28;100.00;97720.63;4366921;32;20169;-69
2022/04/03 01:00:45;;;;;;;12.65;5.82;;;;;;;0.15;100.00;97726.56;4380375;32;20094;-69
2022/04/03 01:03:13;;;;;;;8.65;4.70;;;;;;;0.60;100.00;97730.59;4380307;32;20112;-69
2022/04/03 01:05:40;;;;;;;6.12;3.05;;;;;;;0.56;100.00;97729.13;4380346;32;20114;-69
2022/04/03 01:08:07;;;;;;;6.85;4.47;;;;;;;0.60;100.00;97734.00;4380324;32;20098;-69
2022/04/03 01:10:35;;;;;;;7.47;4.20;;;;;;;0.83;100.00;97737.66;4380315;32;20113;-69
2022/04/03 01:13:02;;;;;;;10.27;4.15;;;;;;;0.68;100.00;97744.66;4380294;32;20472;-69
2022/04/03 01:15:29;;;;;;;6.70;3.90;;;;;;;0.35;100.00;97750.22;4380215;32;20416;-69
2022/04/03 01:17:57;;;;;;;10.07;5.00;;;;;;;0.73;100.00;97751.22;4380171;32;20125;-69
2022/04/03 01:20:24;;;;;;;7.87;3.80;;;;;;;0.81;100.00;97747.22;4380218;32;20600;-69
2022/04/03 01:22:51;;;;;;;6.87;4.00;;;;;;;0.97;100.00;97754.78;4380517;32;20099;-69
2022/04/03 01:25:18;;;;;;;8.27;4.32;;;;;;;0.56;100.00;97757.50;4379906;32;20083;-69
2022/04/03 01:27:46;;;;;;;8.48;4.97;;;;;;;0.68;100.00;97760.13;4380190;32;20083;-69
2022/04/03 01:30:13;;;;;;;8.43;4.70;;;;;;;0.63;100.00;97761.31;4380100;32;20090;-69
2022/04/03 01:32:41;;;;;;;8.00;4.10;;;;;;;0.72;100.00;97760.72;4380151;32;20518;-69
2022/04/03 01:35:08;;;;;;;7.32;4.28;;;;;;;0.75;100.00;97760.53;4380040;32;20083;-69
2022/04/03 01:37:35;;;;;;;8.65;4.70;;;;;;;0.65;100.00;97769.78;4380103;32;20099;-69
2022/04/03 01:40:04;;;;;;;9.02;4.68;;;;;;;0.47;100.00;97770.06;4380185;32;20483;-69
2022/04/03 01:42:31;;;;;;;7.93;4.78;;;;;;;0.72;100.00;97768.47;4380195;32;20437;-69
2022/04/03 01:44:59;;;;;;;9.30;5.05;;;;;;;0.46;100.00;97770.97;4380080;32;20539;-69
2022/04/03 01:47:26;;;;;;;10.13;5.05;;;;;;;0.37;100.00;97774.13;4380038;32;20091;-69
2022/04/03 01:49:53;;;;;;;7.82;4.80;;;;;;;0.51;100.00;97773.25;4380181;32;20165;-69
2022/04/03 01:52:20;;;;;;;9.93;5.75;;;;;;;0.49;100.00;97775.09;4379426;32;20140;-69
2022/04/03 01:54:48;;;;;;;10.77;5.85;;;;;;;0.57;100.00;97784.94;4380074;32;20094;-69
2022/04/03 01:57:15;;;;;;;8.85;5.28;;;;;;;0.78;100.00;97790.44;4379905;32;20103;-69
2022/04/03 01:59:42;;;;;;;12.18;6.62;;;;;;;0.70;100.00;97793.53;4380083;32;20110;-69
2022/04/03 02:02:11;;;;;;;10.00;5.47;;;;;;;0.45;100.00;97797.66;4379924;32;20090;-69
2022/04/03 02:04:39;;;;;;;8.50;4.90;;;;;;;0.55;100.00;97795.31;4379863;32;20105;-69
2022/04/03 02:07:07;;;;;;;8.60;5.55;;;;;;;0.58;100.00;97805.44;4379938;32;20142;-69
2022/04/03 02:09:34;;;;;;;12.70;6.43;;;;;;;0.37;100.00;97802.47;4380056;32;20098;-69
2022/04/03 02:12:03;;;;;;;10.00;5.65;;;;;;;0.63;100.00;97807.72;4379941;32;20099;-69
2022/04/03 02:14:31;;;;;;;11.02;5.80;;;;;;;0.64;100.00;97809.38;4380084;32;20105;-69
2022/04/03 02:16:58;;;;;;;10.52;6.07;;;;;;;0.82;100.00;97810.75;4380097;32;20117;-69
2022/04/03 02:19:25;;;;;;;11.35;6.65;;;;;;;0.79;100.00;97808.38;4380150;32;20479;-69
2022/04/03 02:21:53;;;;;;;9.07;5.85;;;;;;;0.95;100.00;97812.53;4379907;32;20109;-69
2022/04/03 02:24:20;;;;;;;11.20;6.12;;;;;;;0.72;100.00;97811.47;4379614;32;20445;-69
2022/04/03 02:26:47;;;;;;;10.48;5.07;;;;;;;0.79;100.00;97818.69;4379831;32;20102;-69
2022/04/03 02:29:15;;;;;;;10.90;6.25;;;;;;;0.41;100.00;97821.97;4379830;32;20124;-69
2022/04/03 02:31:42;;;;;;;8.15;5.43;;;;;;;0.13;100.00;97818.53;4379758;32;20105;-69
2022/04/03 02:34:10;;;;;;;9.45;5.80;;;;;;;0.24;100.00;97819.63;4379641;32;20082;-69
2022/04/03 02:36:40;;;;;;;10.80;5.85;;;;;;;0.19;100.00;97825.06;4379628;32;20091;-69
2022/04/03 02:39:07;;;;;;;8.55;3.30;;;;;;;0.27;100.00;97825.44;4379681;32;20094;-69
2022/04/03 02:41:35;;;;;;;8.40;4.50;;;;;;;0.53;100.00;97821.19;4379676;32;20094;-69
2022/04/03 02:44:03;;;;;;;5.30;2.55;;;;;;;0.45;100.00;97822.59;4379760;32;20083;-69
2022/04/03 02:46:30;;;;;;;6.97;3.42;;;;;;;0.36;100.00;97842.03;4379730;32;20190;-69
2022/04/03 02:48:58;;;;;;;5.53;3.37;;;;;;;0.59;100.00;97835.44;4379796;32;20417;-69
2022/04/03 02:51:26;;;;;;;5.25;3.12;;;;;;;0.27;100.00;97833.16;4379692;32;20082;-69
2022/04/03 02:53:53;;;;;;;6.40;3.42;;;;;;;0.38;100.00;97835.06;4378509;32;20071;-69
2022/04/03 02:56:20;;;;;;;7.30;3.45;;;;;;;0.76;100.00;97836.94;4379489;32;20103;-69
2022/04/03 02:58:48;;;;;;;6.45;3.50;;;;;;;0.53;100.00;97841.81;4379531;32;20086;-69
2022/04/03 03:01:15;;;;;;;5.12;3.22;;;;;;;0.21;100.00;97845.56;4379527;32;20086;-69
2022/04/03 03:03:42;;;;;;;4.90;2.83;;;;;;;0.46;100.00;97848.28;4379403;32;20125;-69
2022/04/03 03:06:10;;;;;;;7.20;2.92;;;;;;;0.47;100.00;97855.09;4379579;32;20265;-69
2022/04/03 03:08:38;;;;;;;5.35;2.72;;;;;;;0.49;100.00;97855.81;4379765;32;20160;-69
2022/04/03 03:11:05;;;;;;;3.87;2.62;;;;;;;0.42;100.00;97861.44;4379314;32;20437;-69
2022/04/03 03:13:33;;;;;;;3.72;2.60;;;;;;;0.47;100.00;97862.81;4379187;32;20122;-69
2022/04/03 03:16:00;;;;;;;4.85;2.83;;;;;;;0.48;100.00;97874.75;4379268;32;20098;-69
2022/04/03 03:18:27;;;;;;;4.87;2.95;;;;;;;0.37;100.00;97871.22;4379117;32;20129;-70
2022/04/03 03:20:54;;;;;;;5.85;3.30;;;;;;;0.54;100.00;97876.13;4378905;32;20086;-70
2022/04/03 03:23:21;;;;;;;3.97;2.75;;;;;;;0.65;100.00;97881.44;4379021;32;20144;-70
2022/04/03 03:25:48;;;;;;;5.85;3.50;;;;;;;0.38;100.00;97883.16;4377188;32;20111;-71
2022/04/03 03:28:16;;;;;;;4.28;2.60;;;;;;;0.29;100.00;97892.31;4378702;32;20121;-70
2022/04/03 03:30:43;;;;;;;5.45;3.35;;;;;;;0.55;100.00;97887.28;4378365;32;20087;-70
2022/04/03 03:33:10;;;;;;;5.97;3.67;;;;;;;0.39;100.00;97887.41;4378708;32;20113;-70
2022/04/03 03:35:38;;;;;;;4.18;3.08;;;;;;;0.49;100.00;97899.63;4378514;32;20103;-70
2022/04/03 03:38:05;;;;;;;4.57;3.05;;;;;;;0.27;100.00;97900.13;4378474;32;20241;-70
2022/04/03 03:40:32;;;;;;;3.85;2.47;;;;;;;0.26;100.00;97902.78;4378661;32;20530;-70
2022/04/03 03:43:00;;;;;;;3.47;2.67;;;;;;;0.26;100.00;97906.19;4379019;32;20086;-70
2022/04/03 03:45:27;;;;;;;4.30;2.40;;;;;;;0.25;100.00;97906.28;4378986;32;20095;-71
2022/04/03 03:47:54;;;;;;;4.55;2.85;;;;;;;0.17;100.00;97910.16;4378982;32;20086;-70
2022/04/03 03:50:22;;;;;;;3.97;2.58;;;;;;;0.20;100.00;97909.16;4378382;32;20083;-69
2022/04/03 03:52:49;;;;;;;3.28;2.53;;;;;;;0.12;100.00;97908.75;4378745;32;20478;-70
2022/04/03 03:55:16;;;;;;;5.03;2.90;;;;;;;0.14;100.00;97919.81;4379342;32;20465;-70
2022/04/03 03:57:45;;;;;;;4.32;2.97;;;;;;;0.03;100.00;97915.31;4378702;32;20496;-70
2022/04/03 04:00:13;;;;;;;4.50;3.10;;;;;;;0.11;100.00;97920.81;4379023;32;20169;-72
2022/04/03 04:02:41;;;;;;;6.25;3.10;;;;;;;0.21;100.00;97930.56;4378459;32;20448;-70
2022/04/03 04:05:09;;;;;;;3.60;2.70;;;;;;;0.11;100.00;97928.56;4378747;32;20098;-70
2022/04/03 04:07:44;;;;;;;4.60;2.40;;;;;;;-0.03;100.00;97941.41;4378698;32;20786;-70
2022/04/03 04:10:13;;;;;;;5.62;3.30;;;;;;;0.04;100.00;97945.28;4378580;32;20105;-70
2022/04/03 04:12:41;;;;;;;4.45;2.80;;;;;;;-0.22;100.00;97945.06;4378492;32;20094;-69
2022/04/03 04:15:09;;;;;;;4.18;2.55;;;;;;;-0.24;100.00;97946.91;4377723;32;20111;-70
2022/04/03 04:17:38;;;;;;;4.65;2.87;;;;;;;-0.03;100.00;97949.97;4378350;32;20087;-70
2022/04/03 04:20:07;;;;;;;5.20;2.78;;;;;;;0.26;100.00;97959.44;4378492;32;20433;-70
2022/04/03 04:22:35;;;;;;;3.97;2.65;;;;;;;0.28;100.00;97958.44;4378348;32;20392;-69
2022/04/03 04:25:03;;;;;;;5.25;2.83;;;;;;;0.35;100.00;97961.47;4378285;32;20099;-69
2022/04/03 04:27:30;;;;;;;4.45;2.80;;;;;;;0.34;100.00;97972.69;4378263;32;20453;-71
2022/04/03 04:29:57;;;;;;;5.35;2.97;;;;;;;0.22;100.00;97974.25;4378223;32;20155;-69
2022/04/03 04:32:24;;;;;;;4.90;3.08;;;;;;;0.29;100.00;97975.56;4378398;32;20113;-70
2022/04/03 04:34:52;;;;;;;4.62;3.00;;;;;;;0.49;100.00;97982.06;4378371;32;20095;-69
2022/04/03 04:37:19;;;;;;;3.83;2.53;;;;;;;0.50;100.00;97988.87;4378302;32;20099;-69
2022/04/03 04:39:46;;;;;;;3.40;2.60;;;;;;;0.44;100.00;97989.25;4378494;32;20519;-69
2022/04/03 04:42:14;;;;;;;3.50;2.35;;;;;;;0.33;100.00;97991.66;4377940;32;20086;-69
2022/04/03 04:44:42;;;;;;;4.32;2.78;;;;;;;0.22;100.00;97999.19;4377970;32;20107;-69
2022/04/03 04:47:09;;;;;;;5.30;2.87;;;;;;;0.35;100.00;98003.53;4378457;32;20098;-69
2022/04/03 04:49:37;;;;;;;3.97;2.55;;;;;;;0.44;100.00;98009.88;4378119;32;20183;-70
2022/04/03 04:52:04;;;;;;;4.18;2.67;;;;;;;0.46;100.00;98013.19;4378016;32;20385;-69
2022/04/03 04:54:31;;;;;;;7.62;3.08;;;;;;;0.74;100.00;98016.66;4377903;32;20421;-69
2022/04/03 04:56:59;;;;;;;7.80;2.83;;;;;;;0.62;100.00;98017.41;4377964;32;20102;-69
2022/04/03 04:59:32;;;;;;;4.23;2.40;;;;;;;0.63;100.00;98026.81;4377906;32;20086;-69
2022/04/03 05:01:59;;;;;;;6.20;2.28;;;;;;;0.58;100.00;98026.25;4364306;32;20070;-69
2022/04/03 05:04:27;;;;;;;7.57;2.47;;;;;;;0.60;100.00;98032.16;4377901;32;20095;-70
2022/04/03 05:06:55;;;;;;;3.90;2.33;;;;;;;0.76;100.00;98035.44;4377359;32;20185;-69
2022/04/03 05:09:22;;;;;;;7.18;2.42;;;;;;;0.78;100.00;98041.34;4377582;32;20129;-69
2022/04/03 05:11:50;;;;;;;3.53;2.40;;;;;;;1.04;100.00;98041.47;4377386;32;20111;-70
2022/04/03 05:14:17;;;;;;;3.03;2.00;;;;;;;1.12;100.00;98047.00;4364217;32;20181;-69
2022/04/03 05:16:46;;;;;;;3.03;1.90;;;;;;;0.86;100.00;98044.28;4377791;32;20099;-70
2022/04/03 05:19:13;;;;;;;3.30;2.08;;;;;;;0.93;100.00;98043.91;4377568;32;20091;-69
2022/04/03 05:21:41;;;;;;;3.47;2.10;;;;;;;0.97;100.00;98058.25;4364310;32;20079;-68
2022/04/03 05:24:09;;;;;;;2.58;1.80;;;;;;;1.03;100.00;98058.72;4363932;32;20129;-68
2022/04/03 05:26:36;;;;;;;3.15;2.30;;;;;;;1.11;100.00;98070.31;4377520;32;20102;-69
2022/04/03 05:29:09;;;;;;;3.25;2.22;;;;;;;1.14;100.00;98070.94;4378982;32;20086;-69
2022/04/03 05:31:37;;;;;;;3.08;2.45;;;;;;;1.06;100.00;98068.03;4379381;32;20083;-69
2022/04/03 05:34:04;;;;;;;3.75;2.47;;;;;;;1.11;100.00;98071.13;4379857;32;20106;-69
2022/04/03 05:36:31;;;;;;;2.05;1.85;;;;;;;1.01;100.00;98082.94;4379319;32;20113;-69
2022/04/03 05:38:58;;;;;;;4.93;2.45;;;;;;;1.27;100.00;98080.50;4379305;32;20129;-69
2022/04/03 05:41:26;;;;;;;5.65;2.80;;;;;;;1.32;100.00;98081.88;4379158;32;20091;-69
2022/04/03 05:43:54;;;;;;;4.95;2.97;;;;;;;1.39;100.00;98084.88;4379431;32;20440;-69
2022/04/03 05:46:22;;;;;;;4.10;2.67;;;;;;;1.51;100.00;98089.25;4379439;32;20113;-69
2022/04/03 05:48:49;;;;;;;4.95;3.00;;;;;;;1.39;100.00;98090.03;4378335;32;20087;-70
2022/04/03 05:51:16;;;;;;;4.75;2.62;;;;;;;1.36;100.00;98091.09;4365538;32;20124;-69
2022/04/03 05:53:43;;;;;;;4.50;2.80;;;;;;;1.33;100.00;98098.16;4379109;32;20090;-70
2022/04/03 05:56:11;;;;;;;4.72;2.67;;;;;;;1.39;100.00;98093.47;4379079;32;20428;-70
2022/04/03 05:58:39;;;;;;;4.07;2.95;;;;;;;1.17;100.00;98099.12;4379186;32;20082;-70
2022/04/03 06:01:06;;;;;;;5.28;3.47;;;;;;;1.18;100.00;98100.78;4379165;32;20110;-70
2022/04/03 06:03:33;;;;;;;4.20;2.65;;;;;;;0.99;100.00;98102.84;4379281;32;20129;-70
2022/04/03 06:06:01;;;;;;;5.62;3.53;;;;;;;1.19;100.00;98107.59;4379149;32;20098;-71
2022/04/03 06:08:28;;;;;;;4.65;3.12;;;;;;;0.77;100.00;98106.69;4379459;32;20448;-70
2022/04/03 06:10:55;;;;;;;3.78;2.80;;;;;;;0.91;100.00;98111.03;4379580;32;20095;-69
2022/04/03 06:13:24;;;;;;;5.72;3.00;;;;;;;0.76;100.00;98117.94;4379746;32;20118;-70
2022/04/03 06:15:51;;;;;;;5.15;3.40;;;;;;;1.12;100.00;98120.97;4379185;32;20462;-70
2022/04/03 06:18:18;;;;;;;7.35;3.97;;;;;;;1.08;100.00;98115.19;4379168;32;20425;-69
2022/04/03 06:20:47;;;;;;;7.35;3.95;;;;;;;0.75;100.00;98124.00;4379287;32;20142;-69
2022/04/03 06:23:16;;;;;;;6.45;3.95;;;;;;;0.71;100.00;98130.25;4379496;32;20246;-69
2022/04/03 06:25:45;;;;;;;6.45;3.80;;;;;;;0.82;100.00;98127.91;4365741;32;20110;-69
2022/04/03 06:28:12;;;;;;;7.57;4.12;;;;;;;0.94;100.00;98130.62;4366036;32;20087;-69
2022/04/03 06:30:40;;;;;;;6.18;3.72;;;;;;;0.64;100.00;98139.31;4379221;32;20192;-69
2022/04/03 06:33:07;;;;;;;8.55;4.22;;;;;;;0.65;100.00;98139.22;4379338;32;20155;-71
2022/04/03 06:35:35;;;;;;;8.13;4.12;;;;;;;0.88;100.00;98142.19;4378502;32;20095;-70
2022/04/03 06:38:08;;;;;;;9.07;5.43;;;;;;;1.12;100.00;98150.19;4378541;32;20469;-70
2022/04/03 06:40:36;;;;;;;6.25;4.05;;;;;;;0.93;100.00;98144.47;4378788;32;20521;-69
2022/04/03 06:43:03;;;;;;;9.18;5.20;;;;;;;0.90;100.00;98147.25;4365419;32;20098;-70
2022/04/03 06:45:31;;;;;;;6.72;4.28;;;;;;;0.91;100.00;98159.19;4378951;32;20120;-69
2022/04/03 06:48:02;;;;;;;7.97;5.03;;;;;;;1.15;100.00;98152.56;4379303;32;20083;-69
2022/04/03 06:50:30;;;;;;;9.35;5.05;;;;;;;1.34;100.00;98166.94;4379078;32;20105;-69
2022/04/03 06:52:57;;;;;;;8.88;5.30;;;;;;;1.27;100.00;98163.06;4379130;32;20171;-70
2022/04/03 06:55:24;;;;;;;11.40;5.25;;;;;;;1.30;100.00;98168.84;4378950;32;20125;-70
2022/04/03 06:57:51;;;;;;;11.02;6.50;;;;;;;1.42;100.00;98168.12;4378967;32;20082;-70
2022/04/03 07:00:18;;;;;;;11.55;5.82;;;;;;;1.41;100.00;98170.81;4378961;32;20210;-69
2022/04/03 07:02:46;;;;;;;12.85;6.72;;;;;;;1.19;100.00;98177.25;4378757;32;20473;-69
2022/04/03 07:05:13;;;;;;;10.90;6.35;;;;;;;1.30;100.00;98189.50;4378763;32;20570;-70
2022/04/03 07:07:40;;;;;;;10.23;6.60;;;;;;;1.41;100.00;98178.53;4378860;32;20263;-69
2022/04/03 07:10:08;;;;;;;13.18;7.35;;;;;;;1.57;100.00;98183.56;4378326;32;20639;-70
2022/04/03 07:12:36;;;;;;;15.27;7.97;;;;;;;1.52;100.00;98195.94;4377885;32;20500;-70
2022/04/03 07:15:05;;;;;;;14.95;7.72;;;;;;;1.51;100.00;98192.50;4378415;32;20165;-69
2022/04/03 07:17:32;;;;;;;19.10;7.70;;;;;;;1.63;100.00;98205.59;4378408;32;20144;-69
2022/04/03 07:20:02;;;;;;;12.18;7.78;;;;;;;1.43;100.00;98199.91;4378458;32;20153;-69
2022/04/03 07:22:29;;;;;;;16.45;7.80;;;;;;;1.66;99.32;98205.41;4378239;32;20099;-70
2022/04/03 07:24:57;;;;;;;10.98;6.87;;;;;;;1.98;98.10;98208.56;4377988;32;20128;-69
2022/04/03 07:27:24;;;;;;;19.35;7.62;;;;;;;2.18;96.51;98214.22;4378169;32;20499;-69
2022/04/03 07:29:51;;;;;;;14.18;6.68;;;;;;;1.90;96.07;98218.56;4377931;32;20195;-69
2022/04/03 07:32:18;;;;;;;14.73;7.65;;;;;;;1.87;97.59;98229.91;4378147;32;20102;-69
2022/04/03 07:34:45;;;;;;;18.10;9.05;;;;;;;2.05;95.27;98227.09;4378125;32;20533;-69
2022/04/03 07:37:13;;;;;;;17.60;7.78;;;;;;;2.39;93.33;98235.28;4377923;32;20112;-70
2022/04/03 07:39:40;;;;;;;14.18;7.45;;;;;;;2.42;92.65;98240.25;4377941;32;20471;-70
2022/04/03 07:42:07;;;;;;;16.67;6.22;;;;;;;2.76;91.18;98245.84;4377895;32;20453;-70
2022/04/03 07:44:34;;;;;;;13.50;7.32;;;;;;;2.58;88.84;98248.66;4377721;32;20120;-70
2022/04/03 07:47:02;;;;;;;14.18;7.62;;;;;;;2.25;91.63;98252.50;4378247;32;20129;-70
2022/04/03 07:49:29;;;;;;;12.30;6.60;;;;;;;2.03;92.40;98249.59;4378005;32;20125;-70
2022/04/03 07:51:57;;;;;;;14.45;7.32;;;;;;;2.65;90.21;98267.22;4377846;32;20122;-69
2022/04/03 07:54:24;;;;;;;13.93;6.37;;;;;;;2.58;88.70;98268.53;4377880;32;20116;-69
2022/04/03 07:56:51;;;;;;;15.60;5.80;;;;;;;2.57;87.27;98275.44;4378106;32;20588;-69
2022/04/03 07:59:20;;;;;;;11.90;6.57;;;;;;;2.66;88.19;98274.03;4377984;32;20103;-70
2022/04/03 08:01:47;;;;;;;13.18;7.37;;;;;;;2.27;86.49;98278.25;4377653;32;20114;-69
2022/04/03 08:04:15;;;;;;;14.27;8.00;;;;;;;2.48;87.90;98286.37;4377582;32;20090;-70
2022/04/03 08:06:43;;;;;;;11.75;5.40;;;;;;;2.54;83.83;98282.59;4364230;32;20090;-69
2022/04/03 08:09:20;;;;;;;10.73;5.82;;;;;;;2.24;87.59;98281.88;4377460;32;20087;-70
2022/04/03 08:11:47;;;;;;;8.75;5.18;;;;;;;2.52;85.78;98285.28;4377365;32;20095;-70
2022/04/03 08:14:14;;;;;;;10.30;5.80;;;;;;;2.52;85.33;98290.44;4378034;32;20156;-69
2022/04/03 08:16:42;;;;;;;13.27;6.32;;;;;;;2.60;84.86;98298.53;4377851;32;20425;-70
2022/04/03 08:19:12;;;;;;;11.57;6.95;;;;;;;2.41;84.31;98303.25;4378241;32;20126;-70
2022/04/03 08:21:39;;;;;;;10.50;6.28;;;;;;;2.14;86.47;98304.03;4377870;32;20099;-69
2022/04/03 08:24:07;;;;;;;11.57;6.45;;;;;;;2.49;86.13;98308.75;4364328;32;20499;-70
2022/04/03 08:26:34;;;;;;;10.70;5.85;;;;;;;2.89;86.48;98308.75;4377475;32;20487;-70
2022/04/03 08:29:02;;;;;;;12.13;5.75;;;;;;;2.90;83.60;98322.53;4377537;32;20083;-69
2022/04/03 08:31:30;;;;;;;9.45;5.78;;;;;;;2.65;85.68;98319.75;4377546;32;20110;-70
2022/04/03 08:33:57;;;;;;;13.82;6.40;;;;;;;2.65;85.75;98319.75;4377154;32;20090;-69
2022/04/03 08:36:25;;;;;;;13.82;7.47;;;;;;;2.64;85.11;98331.03;4376976;32;20090;-69
2022/04/03 08:38:52;;;;;;;10.07;6.55;;;;;;;2.45;83.72;98333.97;4376876;32;20091;-69
2022/04/03 08:41:20;;;;;;;11.55;5.50;;;;;;;2.33;84.11;98337.28;4376842;32;20095;-69
2022/04/03 08:43:47;;;;;;;8.73;5.95;;;;;;;2.47;84.46;98346.78;4376617;32;20203;-70
2022/04/03 08:46:17;;;;;;;9.68;5.70;;;;;;;2.65;85.44;98345.63;4376674;32;20087;-69
2022/04/03 08:48:46;;;;;;;16.30;7.10;;;;;;;2.47;83.35;98342.44;4377155;32;20091;-70
2022/04/03 08:51:14;;;;;;;15.10;6.10;;;;;;;2.36;86.14;98354.37;4363574;32;20425;-70
2022/04/03 08:53:43;;;;;;;9.82;5.72;;;;;;;2.36;87.38;98349.22;4376509;32;20098;-71
2022/04/03 08:56:11;;;;;;;11.73;6.00;;;;;;;2.69;84.79;98351.41;4363042;32;20180;-70
2022/04/03 08:58:38;;;;;;;11.63;6.85;;;;;;;2.80;84.13;98353.31;4376927;32;20153;-70
2022/04/03 09:01:05;;;;;;;13.25;7.07;;;;;;;2.77;85.30;98353.50;4376195;32;20523;-70
2022/04/03 09:03:32;;;;;;;11.18;6.60;;;;;;;2.67;85.07;98358.47;4378729;32;20094;-70
2022/04/03 09:06:26;;;;;;;17.77;7.22;;;;;;;2.67;83.52;98358.47;4379525;32;20090;-70
2022/04/03 09:08:53;;;;;;;11.70;5.78;;;;;;;2.76;85.10;98363.03;4378109;32;20523;-69
2022/04/03 09:11:20;;;;;;;17.62;7.40;;;;;;;3.08;81.47;98359.31;4365748;32;20107;-70
2022/04/03 09:13:47;;;;;;;14.63;6.80;;;;;;;3.11;84.36;98365.09;4378911;32;20086;-69
2022/04/03 09:16:15;;;;;;;9.93;5.60;;;;;;;3.10;82.08;98372.97;4378639;32;20090;-69
2022/04/03 09:18:53;;;;;;;11.57;6.35;;;;;;;3.26;81.14;98371.03;4378221;32;20128;-69
2022/04/03 09:21:26;;;;;;;14.73;7.18;;;;;;;3.15;83.09;98365.72;4378542;32;20449;-69
2022/04/03 09:23:58;;;;;;;10.02;6.30;;;;;;;3.19;84.78;98364.59;4378417;32;20094;-69
2022/04/03 09:26:27;;;;;;;15.57;6.45;;;;;;;2.91;84.26;98369.00;4364790;32;20275;-71
2022/04/03 09:29:11;;;;;;;12.37;7.12;;;;;;;3.45;83.75;98377.59;4378382;32;20109;-69
2022/04/03 09:31:39;;;;;;;14.93;7.15;;;;;;;3.22;84.88;98371.34;4377352;32;20087;-70
2022/04/03 09:37:24;;;;;;;8.60;5.65;;;;;;;3.20;83.06;98386.97;4378392;32;20151;-68
2022/04/03 09:39:53;;;;;;;12.70;6.43;;;;;;;2.91;82.12;98378.53;4352626;32;20082;-69
2022/04/03 09:42:22;;;;;;;11.32;6.97;;;;;;;3.20;81.39;98381.81;4378082;32;20106;-70
2022/04/03 09:44:49;;;;;;;14.95;6.07;;;;;;;2.72;83.27;98389.19;4378378;32;20099;-70
2022/04/03 09:47:30;;;;;;;9.85;6.18;;;;;;;3.02;82.71;98387.22;4378344;32;20148;-70
2022/04/03 09:49:59;;;;;;;14.00;6.62;;;;;;;3.14;81.56;98414.09;4378774;32;20140;-69
2022/04/03 09:52:33;;;;;;;16.02;8.50;;;;;;;2.69;83.42;98402.31;4364877;32;20129;-70
2022/04/03 09:55:01;;;;;;;15.77;6.55;;;;;;;3.09;86.81;98407.53;4378397;32;20087;-69
2022/04/03 09:57:29;;;;;;;11.12;7.12;;;;;;;2.95;78.69;98411.88;4378142;32;20078;-69
2022/04/03 09:59:56;;;;;;;8.20;5.62;;;;;;;2.81;80.03;98406.72;4378756;32;20592;-69
2022/04/03 10:02:24;;;;;;;11.02;6.65;;;;;;;2.79;80.44;98404.22;4377555;32;20114;-69
2022/04/03 10:04:52;;;;;;;15.25;6.65;;;;;;;2.92;81.93;98408.63;4378627;32;20110;-69
2022/04/03 10:07:20;;;;;;;9.13;5.03;;;;;;;2.80;82.81;98412.81;4365578;32;20103;-69
2022/04/03 10:09:48;;;;;;;13.82;7.93;;;;;;;3.03;80.87;98416.53;4378453;32;20094;-68
2022/04/03 10:12:21;;;;;;;7.37;4.55;;;;;;;2.57;82.50;98415.09;4377582;32;20149;-69
2022/04/03 10:14:52;;;;;;;16.00;7.70;;;;;;;3.00;82.37;98416.75;4377626;32;20086;-69
2022/04/03 10:17:20;;;;;;;8.55;5.22;;;;;;;3.12;81.64;98418.53;4378450;32;20109;-69
2022/04/03 10:19:48;;;;;;;12.50;7.25;;;;;;;3.17;80.76;98433.78;4378557;32;20082;-69
2022/04/03 10:22:20;;;;;;;11.12;6.15;;;;;;;3.01;82.79;98432.16;4378784;32;20099;-71
2022/04/03 10:24:51;;;;;;;12.75;6.70;;;;;;;3.19;79.57;98427.56;4365233;32;20098;-68
2022/04/03 10:27:23;;;;;;;13.30;7.85;;;;;;;3.07;82.30;98422.34;4378472;32;20452;-69
2022/04/03 10:29:55;;;;;;;11.45;6.32;;;;;;;3.05;82.58;98426.81;4365183;32;20084;-69
2022/04/03 10:32:27;;;;;;;14.07;7.28;;;;;;;3.18;81.44;98410.38;4378061;32;20515;-70
2022/04/03 10:35:03;;;;;;;12.05;6.70;;;;;;;3.20;81.09;98420.63;4378383;32;20433;-71
2022/04/03 10:37:34;;;;;;;10.32;6.78;;;;;;;3.11;79.90;98436.75;4378880;32;20508;-68
2022/04/03 10:40:08;;;;;;;12.20;6.50;;;;;;;3.77;81.55;98445.41;4378623;32;20113;-69
2022/04/03 10:42:56;;;;;;;13.55;7.20;;;;;;;3.74;78.07;98432.66;4378435;32;20114;-69
2022/04/03 10:45:34;;;;;;;17.05;7.30;;;;;;;4.08;78.84;98445.94;4364159;32;20416;-69
2022/04/03 10:48:21;;;;;;;11.10;5.70;;;;;;;3.96;80.90;98441.56;4378561;32;20079;-69
2022/04/03 10:51:11;;;;;;;16.12;7.10;;;;;;;4.06;77.38;98443.44;4378303;32;20117;-70
2022/04/03 10:53:44;;;;;;;11.02;7.47;;;;;;;4.05;78.40;98456.50;4378518;32;20121;-69
2022/04/03 10:56:25;;;;;;;11.38;6.40;;;;;;;3.93;75.50;98442.59;4365184;32;20166;-69
2022/04/03 10:58:55;;;;;;;11.15;6.45;;;;;;;3.86;77.06;98442.19;4377818;32;20075;-70
2022/04/03 11:01:24;;;;;;;11.30;6.57;;;;;;;4.09;78.20;98451.00;4377878;32;20544;-70
2022/04/03 11:03:57;;;;;;;12.27;6.43;;;;;;;3.84;73.49;98448.41;4378280;32;20098;-69
2022/04/03 11:06:32;;;;;;;11.10;6.25;;;;;;;3.94;78.03;98449.44;4378065;32;20086;-69
2022/04/03 11:09:20;;;;;;;14.73;7.28;;;;;;;4.35;75.86;98452.75;4376035;32;20079;-69
2022/04/03 11:11:51;;;;;;;7.85;5.28;;;;;;;4.49;76.33;98460.41;4378394;32;20129;-69
2022/04/03 11:14:52;;;;;;;11.48;6.93;;;;;;;4.32;73.52;98458.16;4378238;32;20094;-69
2022/04/03 11:17:48;;;;;;;9.80;5.93;;;;;;;4.03;73.79;98454.00;4378474;32;20543;-69
2022/04/03 11:20:32;;;;;;;14.60;7.15;;;;;;;4.47;74.30;98451.91;4378204;32;20105;-69
2022/04/03 11:23:03;;;;;;;10.25;6.72;;;;;;;4.51;72.76;98478.47;4364014;32;20099;-68
2022/04/03 11:25:30;;;;;;;10.35;5.95;;;;;;;4.24;71.89;98476.84;4375656;32;20456;-68
2022/04/03 11:27:58;;;;;;;12.73;7.00;;;;;;;4.43;71.99;98487.59;4377845;32;20474;-69
2022/04/03 11:30:26;;;;;;;10.98;6.72;;;;;;;5.00;73.71;98472.44;4377905;32;20087;-69
2022/04/03 11:32:53;;;;;;;13.65;7.10;;;;;;;4.96;70.66;98486.56;4377850;32;20162;-69
2022/04/03 11:35:37;;;;;;;11.18;6.72;;;;;;;5.06;68.33;98484.97;4364185;32;20098;-68
2022/04/03 11:38:05;;;;;;;11.90;7.10;;;;;;;5.17;66.23;98484.22;4377104;32;20448;-69
2022/04/03 11:40:35;;;;;;;14.38;6.53;;;;;;;5.02;69.00;98486.13;4377394;32;20410;-68
2022/04/03 11:43:10;;;;;;;12.30;6.45;;;;;;;4.99;64.70;98488.94;4376920;32;20216;-69